createdAt,value
2022-10-19T00:00:51.283Z,102595.91
2022-10-19T00:03:23.129Z,102602.69
2022-10-19T00:05:51.185Z,102602.44
2022-10-19T00:08:19.047Z,102600.00
2022-10-19T00:10:46.967Z,102598.63
2022-10-19T00:13:14.871Z,102599.72
2022-10-19T00:15:43.424Z,102596.47
2022-10-19T00:18:11.197Z,102598.09
2022-10-19T00:20:40.385Z,102593.50
2022-10-19T00:23:08.254Z,102595.38
2022-10-19T00:25:37.011Z,102601.34
2022-10-19T00:28:05.116Z,102597.00
2022-10-19T00:30:32.949Z,102590.75
2022-10-19T00:33:00.721Z,102600.00
2022-10-19T00:35:28.568Z,102592.13
2022-10-19T00:37:57.730Z,102597.03
2022-10-19T00:40:25.580Z,102586.16
2022-10-19T00:42:56.222Z,102591.88
2022-10-19T00:45:24.085Z,102594.31
2022-10-19T00:47:51.994Z,102602.19
2022-10-19T00:50:20.261Z,102601.91
2022-10-19T00:52:48.436Z,102597.03
2022-10-19T00:55:18.054Z,102603.56
2022-10-19T00:57:45.941Z,102600.84
2022-10-19T01:00:14.693Z,102598.66
2022-10-19T01:02:42.552Z,102597.03
2022-10-19T01:05:11.342Z,102591.59
2022-10-19T01:07:39.131Z,102585.34
2022-10-19T01:10:07.947Z,102584.28
2022-10-19T01:13:00.092Z,102585.34
2022-10-19T01:15:35.637Z,102576.13
2022-10-19T01:18:12.048Z,102581.28
2022-10-19T01:21:06.527Z,102572.88
2022-10-19T01:24:19.201Z,102578.31
2022-10-19T01:27:29.581Z,102575.84
2022-10-19T01:30:09.668Z,102575.03
2022-10-19T01:32:54.028Z,102567.16
2022-10-19T01:35:29.934Z,102564.97
2022-10-19T01:38:09.134Z,102574.22
2022-10-19T01:40:43.468Z,102567.16
2022-10-19T01:43:21.505Z,102578.00
2022-10-19T01:45:53.605Z,102569.34
2022-10-19T01:48:24.345Z,102569.84
2022-10-19T01:50:58.525Z,102564.44
2022-10-19T01:53:29.676Z,102567.69
2022-10-19T01:55:59.468Z,102574.75
2022-10-19T01:58:30.013Z,102573.41
2022-10-19T02:01:04.507Z,102569.84
2022-10-19T02:03:33.879Z,102559.81
2022-10-19T02:06:05.176Z,102569.31
2022-10-19T02:08:40.094Z,102560.91
2022-10-19T02:11:08.050Z,102557.34
2022-10-19T02:13:37.287Z,102555.72
2022-10-19T02:16:11.038Z,102554.63
2022-10-19T02:18:43.740Z,102553.56
2022-10-19T02:21:11.992Z,102551.38
2022-10-19T02:23:40.243Z,102551.38
2022-10-19T02:26:09.176Z,102551.06
2022-10-19T02:28:37.775Z,102553.53
2022-10-19T02:31:07.442Z,102550.53
2022-10-19T02:33:35.377Z,102555.41
2022-10-19T02:36:03.744Z,102552.41
2022-10-19T02:38:31.784Z,102555.38
2022-10-19T02:41:06.905Z,102551.31
2022-10-19T02:43:38.211Z,102547.19
2022-10-19T02:46:11.688Z,102546.66
2022-10-19T02:48:42.861Z,102539.88
2022-10-19T02:51:29.133Z,102534.44
2022-10-19T02:53:58.993Z,102539.31
2022-10-19T02:56:29.587Z,102539.03
2022-10-19T02:58:57.874Z,102537.38
2022-10-19T03:01:27.190Z,102534.94
2022-10-19T03:03:54.964Z,102530.84
2022-10-19T03:06:22.810Z,102530.03
2022-10-19T03:08:50.608Z,102523.53
2022-10-19T03:11:18.484Z,102524.06
2022-10-19T03:16:15.146Z,102521.34
2022-10-19T03:18:44.300Z,102518.06
2022-10-19T03:21:13.993Z,102514.81
2022-10-19T03:23:42.437Z,102516.97
2022-10-19T03:26:14.614Z,102516.97
2022-10-19T03:28:42.666Z,102516.16
2022-10-19T03:31:10.552Z,102518.56
2022-10-19T03:33:38.492Z,102514.78
2022-10-19T03:36:23.213Z,102518.53
2022-10-19T03:38:52.661Z,102516.91
2022-10-19T03:41:21.455Z,102525.31
2022-10-19T03:43:49.366Z,102526.13
2022-10-19T03:46:17.618Z,102531.56
2022-10-19T03:48:45.827Z,102535.06
2022-10-19T03:51:15.376Z,102531.81
2022-10-19T03:53:45.058Z,102537.25
2022-10-19T03:56:15.008Z,102532.09
2022-10-19T03:58:44.703Z,102529.38
2022-10-19T04:01:14.389Z,102536.69
2022-10-19T04:03:42.372Z,102538.59
2022-10-19T04:06:14.007Z,102545.09
2022-10-19T04:08:45.921Z,102547.81
2022-10-19T04:11:16.060Z,102547.25
2022-10-19T04:13:43.876Z,102540.19
2022-10-19T04:16:14.996Z,102540.72
2022-10-19T04:18:42.905Z,102540.69
2022-10-19T04:21:22.332Z,102525.22
2022-10-19T04:23:52.462Z,102530.63
2022-10-19T04:26:20.904Z,102522.50
2022-10-19T04:28:48.915Z,102527.66
2022-10-19T04:31:17.061Z,102532.81
2022-10-19T04:36:13.739Z,102518.47
2022-10-19T04:38:41.572Z,102508.19
2022-10-19T04:41:12.974Z,102517.13
2022-10-19T04:43:41.161Z,102516.31
2022-10-19T04:46:10.914Z,102516.84
2022-10-19T04:48:40.500Z,102515.78
2022-10-19T04:51:09.055Z,102517.44
2022-10-19T04:53:38.743Z,102513.63
2022-10-19T04:56:07.962Z,102517.97
2022-10-19T04:58:37.100Z,102521.75
2022-10-19T05:01:09.654Z,102507.41
2022-10-19T05:03:37.545Z,102511.75
2022-10-19T05:06:05.685Z,102509.03
2022-10-19T05:08:33.695Z,102510.66
2022-10-19T05:11:05.944Z,102506.84
2022-10-19T05:13:34.170Z,102505.50
2022-10-19T05:16:05.798Z,102497.66
2022-10-19T05:18:33.879Z,102502.78
2022-10-19T05:21:03.279Z,102497.88
2022-10-19T05:26:05.794Z,102497.31
2022-10-19T05:28:34.023Z,102489.72
2022-10-19T05:31:11.798Z,102499.44
2022-10-19T05:33:40.496Z,102496.72
2022-10-19T05:36:13.714Z,102496.19
2022-10-19T05:38:41.673Z,102498.34
2022-10-19T05:41:09.694Z,102504.00
2022-10-19T05:43:37.703Z,102500.47
2022-10-19T05:46:06.968Z,102504.81
2022-10-19T05:48:36.450Z,102491.78
2022-10-19T05:51:06.442Z,102502.88
2022-10-19T05:53:36.349Z,102498.81
2022-10-19T05:56:05.906Z,102510.72
2022-10-19T05:58:34.208Z,102503.69
2022-10-19T06:01:03.236Z,102509.59
2022-10-19T06:03:31.680Z,102504.72
2022-10-19T06:06:04.096Z,102508.19
2022-10-19T06:08:32.087Z,102497.09
2022-10-19T06:11:06.887Z,102501.66
2022-10-19T06:13:34.831Z,102499.22
2022-10-19T06:16:03.127Z,102498.41
2022-10-19T06:18:31.329Z,102496.78
2022-10-19T06:21:05.038Z,102500.56
2022-10-19T06:23:33.627Z,102499.75
2022-10-19T06:26:04.042Z,102499.75
2022-10-19T06:28:32.007Z,102499.75
2022-10-19T06:31:00.164Z,102497.31
2022-10-19T06:33:30.019Z,102508.97
2022-10-19T06:35:58.289Z,102502.72
2022-10-19T06:38:27.507Z,102515.19
2022-10-19T06:40:59.684Z,102507.34
2022-10-19T06:43:27.544Z,102518.16
2022-10-19T06:45:56.253Z,102512.69
2022-10-19T06:48:24.616Z,102512.16
2022-10-19T06:50:57.777Z,102518.88
2022-10-19T06:53:29.045Z,102519.16
2022-10-19T06:55:59.087Z,102511.03
2022-10-19T06:58:29.501Z,102517.53
2022-10-19T07:00:58.271Z,102515.06
2022-10-19T07:03:28.911Z,102509.91
2022-10-19T07:05:59.075Z,102506.97
2022-10-19T07:08:29.971Z,102509.66
2022-10-19T07:10:59.667Z,102514.00
2022-10-19T07:13:28.369Z,102504.78
2022-10-19T07:15:59.221Z,102498.03
2022-10-19T07:18:27.399Z,102492.63
2022-10-19T07:20:56.486Z,102499.16
2022-10-19T07:23:29.693Z,102501.06
2022-10-19T07:26:01.553Z,102505.75
2022-10-19T07:28:29.753Z,102500.44
2022-10-19T07:30:57.945Z,102499.16
2022-10-19T07:33:25.874Z,102505.50
2022-10-19T07:36:00.486Z,102511.59
2022-10-19T07:38:31.853Z,102506.75
2022-10-19T07:41:05.282Z,102501.41
2022-10-19T07:43:34.009Z,102503.63
2022-10-19T07:46:03.894Z,102504.69
2022-10-19T07:48:31.773Z,102507.66
2022-10-19T07:51:01.743Z,102510.94
2022-10-19T07:53:30.973Z,102503.59
2022-10-19T07:56:06.838Z,102501.94
2022-10-19T07:58:35.434Z,102510.66
2022-10-19T08:01:04.199Z,102515.00
2022-10-19T08:04:14.273Z,102513.38
2022-10-19T08:06:20.913Z,102503.06
2022-10-19T08:08:50.876Z,102507.41
2022-10-19T08:11:21.303Z,102503.06
2022-10-19T08:13:49.755Z,102501.16
2022-10-19T08:16:24.310Z,102507.41
2022-10-19T08:18:52.971Z,102500.88
2022-10-19T08:21:21.122Z,102502.53
2022-10-19T08:23:50.708Z,102511.72
2022-10-19T08:26:18.664Z,102510.09
2022-10-19T08:28:46.648Z,102514.19
2022-10-19T08:31:16.769Z,102516.06
2022-10-19T08:33:45.335Z,102512.28
2022-10-19T08:36:14.754Z,102516.34
2022-10-19T08:38:44.737Z,102507.13
2022-10-19T08:41:27.717Z,102507.38
2022-10-19T08:44:17.197Z,102500.84
2022-10-19T08:46:53.836Z,102497.31
2022-10-19T08:49:25.497Z,102498.13
2022-10-19T08:51:57.488Z,102488.88
2022-10-19T08:54:30.129Z,102489.41
2022-10-19T08:57:14.506Z,102482.81
2022-10-19T08:59:50.297Z,102482.00
2022-10-19T09:02:23.881Z,102473.25
2022-10-19T09:04:58.736Z,102470.47
2022-10-19T09:07:30.016Z,102472.38
2022-10-19T09:10:02.385Z,102470.69
2022-10-19T09:12:43.707Z,102464.16
2022-10-19T09:15:16.012Z,102459.19
2022-10-19T09:17:44.321Z,102457.75
2022-10-19T09:20:18.759Z,102446.78
2022-10-19T09:22:49.147Z,102442.34
2022-10-19T09:25:21.219Z,102435.97
2022-10-19T09:28:04.490Z,102435.91
2022-10-19T09:30:36.374Z,102439.06
2022-10-19T09:33:04.831Z,102443.88
2022-10-19T09:35:42.761Z,102440.53
2022-10-19T09:38:16.732Z,102438.75
2022-10-19T09:40:50.487Z,102434.22
2022-10-19T09:43:21.969Z,102421.56
2022-10-19T09:45:54.218Z,102423.63
2022-10-19T09:48:30.448Z,102419.75
2022-10-19T09:51:01.448Z,102423.22
2022-10-19T09:53:34.991Z,102419.53
2022-10-19T09:56:07.657Z,102421.53
2022-10-19T09:58:37.162Z,102406.63
2022-10-19T10:01:05.072Z,102413.06
2022-10-19T10:03:35.356Z,102418.06
2022-10-19T10:06:08.405Z,102412.16
2022-10-19T10:08:39.313Z,102408.75
2022-10-19T10:11:12.407Z,102395.44
2022-10-19T10:13:44.601Z,102392.97
2022-10-19T10:16:16.399Z,102393.81
2022-10-19T10:18:54.308Z,102392.59
2022-10-19T10:21:25.704Z,102391.59
2022-10-19T10:24:05.595Z,102386.75
2022-10-19T10:26:38.680Z,102396.38
2022-10-19T10:29:18.398Z,102393.75
2022-10-19T10:31:48.683Z,102398.00
2022-10-19T10:34:29.938Z,102390.38
2022-10-19T10:37:09.349Z,102389.38
2022-10-19T10:39:42.555Z,102400.09
2022-10-19T10:42:15.666Z,102391.66
2022-10-19T10:44:52.595Z,102390.56
2022-10-19T10:47:22.213Z,102390.13
2022-10-19T10:49:57.629Z,102391.97
2022-10-19T10:52:29.103Z,102396.84
2022-10-19T10:55:03.701Z,102399.88
2022-10-19T10:57:35.661Z,102391.13
2022-10-19T11:00:11.587Z,102389.38
2022-10-19T11:02:50.684Z,102384.09
2022-10-19T11:05:23.770Z,102370.00
2022-10-19T11:07:56.029Z,102370.97
2022-10-19T11:10:29.665Z,102362.66
2022-10-19T11:13:06.713Z,102358.03
2022-10-19T11:15:41.650Z,102365.00
2022-10-19T11:18:19.568Z,102350.81
2022-10-19T11:20:55.001Z,102349.38
2022-10-19T11:23:32.315Z,102339.56
2022-10-19T11:26:11.876Z,102333.50
2022-10-19T11:28:55.501Z,102328.03
2022-10-19T11:31:37.143Z,102317.44
2022-10-19T11:34:18.066Z,102318.88
2022-10-19T11:36:54.929Z,102311.31
2022-10-19T11:39:41.622Z,102305.03
2022-10-19T11:42:17.043Z,102287.19
2022-10-19T11:44:59.316Z,102277.03
2022-10-19T11:47:37.620Z,102279.59
2022-10-19T11:50:23.255Z,102282.22
2022-10-19T11:53:01.512Z,102283.69
2022-10-19T11:55:40.507Z,102279.50
2022-10-19T11:58:34.470Z,102278.56
2022-10-19T12:01:17.658Z,102281.94
2022-10-19T12:04:28.455Z,102276.28
2022-10-19T12:07:07.257Z,102278.72
2022-10-19T12:09:44.565Z,102271.31
2022-10-19T12:12:30.797Z,102268.06
2022-10-19T12:15:17.008Z,102261.84
2022-10-19T12:17:48.846Z,102251.38
2022-10-19T12:20:22.987Z,102254.13
2022-10-19T12:22:52.453Z,102234.13
2022-10-19T12:25:23.956Z,102232.50
2022-10-19T12:27:54.851Z,102232.00
2022-10-19T12:30:28.725Z,102237.78
2022-10-19T12:33:15.825Z,102235.38
2022-10-19T12:36:00.492Z,102222.97
2022-10-19T12:38:40.966Z,102225.41
2022-10-19T12:41:23.471Z,102222.16
2022-10-19T12:44:02.987Z,102221.69
2022-10-19T12:46:41.434Z,102221.16
2022-10-19T12:49:47.440Z,102209.91
2022-10-19T12:52:18.191Z,102200.44
2022-10-19T12:54:47.552Z,102199.59
2022-10-19T12:57:27.265Z,102189.25
2022-10-19T13:00:05.415Z,102185.44
2022-10-19T13:02:36.438Z,102192.50
2022-10-19T13:05:07.912Z,102190.91
2022-10-19T13:07:37.528Z,102177.69
2022-10-19T13:10:19.659Z,102168.16
2022-10-19T13:12:48.844Z,102172.19
2022-10-19T13:15:50.410Z,102158.03
2022-10-19T13:19:06.950Z,102160.25
2022-10-19T13:22:25.819Z,102160.25
2022-10-19T13:25:33.166Z,102154.16
2022-10-19T13:28:18.875Z,102141.91
2022-10-19T13:31:07.051Z,102138.69
2022-10-19T13:33:51.963Z,102138.03
2022-10-19T13:36:21.394Z,102131.59
2022-10-19T13:39:33.485Z,102126.25
2022-10-19T13:42:01.465Z,102131.25
2022-10-19T13:44:35.596Z,102129.00
2022-10-19T13:47:34.614Z,102137.22
2022-10-19T13:50:23.675Z,102119.66
2022-10-19T13:53:22.722Z,102121.75
2022-10-19T13:56:03.158Z,102121.59
2022-10-19T13:59:09.402Z,102113.69
2022-10-19T14:01:52.965Z,102113.84
2022-10-19T14:04:29.602Z,102100.91
2022-10-19T14:07:02.401Z,102104.63
2022-10-19T14:09:48.544Z,102109.97
2022-10-19T14:12:23.897Z,102104.28
2022-10-19T14:14:53.882Z,102103.16
2022-10-19T14:17:25.553Z,102107.19
2022-10-19T14:19:57.034Z,102110.75
2022-10-19T14:22:29.853Z,102110.91
2022-10-19T14:25:18.806Z,102104.47
2022-10-19T14:27:47.927Z,102102.69
2022-10-19T14:30:24.234Z,102088.50
2022-10-19T14:32:56.883Z,102085.09
2022-10-19T14:35:30.649Z,102088.97
2022-10-19T14:37:59.402Z,102079.13
2022-10-19T14:40:29.580Z,102080.25
2022-10-19T14:42:58.859Z,102080.09
2022-10-19T14:45:28.587Z,102079.47
2022-10-19T14:48:04.016Z,102072.69
2022-10-19T14:50:40.849Z,102068.00
2022-10-19T14:53:23.381Z,102065.47
2022-10-19T14:55:56.187Z,102054.50
2022-10-19T14:58:27.268Z,102054.31
2022-10-19T15:00:56.395Z,102055.78
2022-10-19T15:03:28.598Z,102050.13
2022-10-19T15:06:00.035Z,102046.75
2022-10-19T15:08:37.540Z,102047.41
2022-10-19T15:11:07.495Z,102049.69
2022-10-19T15:13:41.479Z,102049.19
2022-10-19T15:16:29.759Z,102051.25
2022-10-19T15:19:04.368Z,102041.94
2022-10-19T15:21:33.504Z,102034.81
2022-10-19T15:24:10.247Z,102033.88
2022-10-19T15:26:38.409Z,102033.41
2022-10-19T15:29:10.787Z,102036.13
2022-10-19T15:31:39.040Z,102022.91
2022-10-19T15:34:24.518Z,102021.13
2022-10-19T15:36:57.877Z,102017.75
2022-10-19T15:39:38.966Z,102015.81
2022-10-19T15:42:34.620Z,102014.69
2022-10-19T15:45:06.490Z,102011.44
2022-10-19T15:47:34.969Z,102014.53
2022-10-19T15:50:05.049Z,101998.09
2022-10-19T15:52:34.850Z,102004.03
2022-10-19T15:55:03.168Z,102005.97
2022-10-19T15:57:34.692Z,102008.25
2022-10-19T16:00:09.214Z,101993.41
2022-10-19T16:02:39.066Z,101997.13
2022-10-19T16:05:11.958Z,101995.50
2022-10-19T16:07:42.131Z,101991.47
2022-10-19T16:10:17.137Z,101998.09
2022-10-19T16:12:45.750Z,101991.66
2022-10-19T16:15:13.936Z,101997.28
2022-10-19T16:17:52.557Z,101996.78
2022-10-19T16:20:22.621Z,101991.97
2022-10-19T16:22:50.651Z,101991.00
2022-10-19T16:25:19.140Z,101986.66
2022-10-19T16:27:47.127Z,101989.22
2022-10-19T16:30:15.614Z,101976.50
2022-10-19T16:32:45.969Z,101972.94
2022-10-19T16:35:14.035Z,101976.31
2022-10-19T16:37:43.250Z,101972.75
2022-10-19T16:40:11.986Z,101970.44
2022-10-19T16:42:40.062Z,101963.50
2022-10-19T16:45:09.470Z,101972.16
2022-10-19T16:47:37.712Z,101954.28
2022-10-19T16:50:13.483Z,101949.75
2022-10-19T16:52:43.010Z,101943.94
2022-10-19T16:55:11.559Z,101948.13
2022-10-19T16:57:39.782Z,101946.16
2022-10-19T17:00:10.146Z,101951.09
2022-10-19T17:02:41.989Z,101953.47
2022-10-19T17:05:12.260Z,101953.41
2022-10-19T17:07:40.190Z,101957.41
2022-10-19T17:10:10.391Z,101960.28
2022-10-19T17:12:41.749Z,101966.19
2022-10-19T17:15:37.535Z,101959.72
2022-10-19T17:17:59.028Z,101965.47
2022-10-19T17:20:26.992Z,101958.66
2022-10-19T17:22:54.940Z,101958.66
2022-10-19T17:25:24.274Z,101962.03
2022-10-19T17:27:52.413Z,101954.44
2022-10-19T17:30:20.289Z,101949.09
2022-10-19T17:32:48.260Z,101950.81
2022-10-19T17:35:16.290Z,101945.47
2022-10-19T17:37:44.261Z,101951.38
2022-10-19T17:40:12.817Z,101949.28
2022-10-19T17:42:42.067Z,101955.84
2022-10-19T17:45:11.361Z,101956.44
2022-10-19T17:47:39.659Z,101944.56
2022-10-19T17:50:08.552Z,101947.41
2022-10-19T17:52:36.519Z,101943.16
2022-10-19T17:55:12.159Z,101949.03
2022-10-19T17:57:41.762Z,101951.28
2022-10-19T18:00:10.371Z,101940.38
2022-10-19T18:02:38.274Z,101945.81
2022-10-19T18:05:06.769Z,101944.00
2022-10-19T18:07:35.017Z,101934.53
2022-10-19T18:10:03.111Z,101935.63
2022-10-19T18:12:31.017Z,101930.19
2022-10-19T18:15:00.207Z,101923.59
2022-10-19T18:17:28.348Z,101927.44
2022-10-19T18:19:56.255Z,101929.69
2022-10-19T18:22:24.187Z,101934.13
2022-10-19T18:24:52.045Z,101930.28
2022-10-19T18:27:19.904Z,101934.44
2022-10-19T18:29:47.893Z,101935.88
2022-10-19T18:32:17.299Z,101934.75
2022-10-19T18:34:45.416Z,101936.69
2022-10-19T18:37:13.421Z,101937.38
2022-10-19T18:39:42.241Z,101937.81
2022-10-19T18:42:12.783Z,101923.66
2022-10-19T18:44:41.158Z,101938.41
2022-10-19T18:47:09.118Z,101928.63
2022-10-19T18:49:38.618Z,101928.72
2022-10-19T18:52:06.591Z,101926.63
2022-10-19T18:54:34.575Z,101920.78
2022-10-19T18:57:02.507Z,101919.44
2022-10-19T18:59:30.427Z,101912.38
2022-10-19T19:01:58.248Z,101917.81
2022-10-19T19:04:26.223Z,101913.72
2022-10-19T19:06:55.452Z,101916.44
2022-10-19T19:09:23.397Z,101905.94
2022-10-19T19:11:52.106Z,101906.84
2022-10-19T19:14:22.065Z,101891.19
2022-10-19T19:16:50.009Z,101894.00
2022-10-19T19:19:19.639Z,101893.00
2022-10-19T19:21:49.100Z,101889.06
2022-10-19T19:24:19.833Z,101890.44
2022-10-19T19:26:50.062Z,101884.50
2022-10-19T19:29:18.897Z,101881.28
2022-10-19T19:31:47.248Z,101880.88
2022-10-19T19:34:15.397Z,101870.69
2022-10-19T19:36:47.808Z,101873.81
2022-10-19T19:39:20.050Z,101857.25
2022-10-19T19:41:48.771Z,101857.25
2022-10-19T19:44:17.144Z,101847.78
2022-10-19T19:46:45.047Z,101844.56
2022-10-19T19:49:13.122Z,101849.16
2022-10-19T19:51:41.120Z,101848.97
2022-10-19T19:54:09.233Z,101861.88
2022-10-19T19:56:39.643Z,101856.50
2022-10-19T19:59:07.474Z,101862.56
2022-10-19T20:01:37.397Z,101877.28
2022-10-19T20:04:06.468Z,101870.22
2022-10-19T20:06:36.594Z,101866.16
2022-10-19T20:09:06.086Z,101863.25
2022-10-19T20:11:37.150Z,101863.25
2022-10-19T20:14:09.088Z,101854.06
2022-10-19T20:16:37.315Z,101846.00
2022-10-19T20:19:08.440Z,101850.91
2022-10-19T20:21:36.425Z,101848.81
2022-10-19T20:24:04.946Z,101841.22
2022-10-19T20:26:33.476Z,101838.59
2022-10-19T20:29:02.978Z,101838.19
2022-10-19T20:31:33.691Z,101836.03
2022-10-19T20:34:01.622Z,101836.34
2022-10-19T20:36:29.443Z,101824.97
2022-10-19T20:38:59.529Z,101824.72
2022-10-19T20:41:29.017Z,101820.19
2022-10-19T20:43:57.357Z,101825.22
2022-10-19T20:46:27.610Z,101821.25
2022-10-19T20:48:59.673Z,101819.63
2022-10-19T20:51:32.119Z,101819.13
2022-10-19T20:54:01.969Z,101812.91
2022-10-19T20:56:32.418Z,101816.53
2022-10-19T21:01:31.962Z,101815.56
2022-10-19T21:04:03.382Z,101811.53
2022-10-19T21:06:32.886Z,101808.25
2022-10-19T21:09:01.142Z,101802.28
2022-10-19T21:11:30.631Z,101801.47
2022-10-19T21:14:00.269Z,101787.88
2022-10-19T21:16:30.280Z,101790.59
2022-10-19T21:19:00.412Z,101782.44
2022-10-19T21:21:32.029Z,101782.94
2022-10-19T21:24:02.634Z,101771.25
2022-10-19T21:26:30.467Z,101763.41
2022-10-19T21:28:58.648Z,101762.84
2022-10-19T21:31:27.736Z,101754.16
2022-10-19T21:33:56.160Z,101762.84
2022-10-19T21:36:26.060Z,101758.47
2022-10-19T21:38:55.253Z,101750.03
2022-10-19T21:41:26.203Z,101752.22
2022-10-19T21:43:54.610Z,101754.75
2022-10-19T21:46:23.857Z,101752.53
2022-10-19T21:48:52.384Z,101761.00
2022-10-19T21:51:31.622Z,101747.69
2022-10-19T21:54:01.514Z,101743.88
2022-10-19T21:56:29.567Z,101735.72
2022-10-19T21:58:58.327Z,101740.06
2022-10-19T22:01:28.697Z,101729.16
2022-10-19T22:03:57.600Z,101733.81
2022-10-19T22:06:26.099Z,101735.22
2022-10-19T22:08:54.899Z,101730.34
2022-10-19T22:11:25.285Z,101730.34
2022-10-19T22:13:55.760Z,101729.34
2022-10-19T22:16:24.505Z,101723.91
2022-10-19T22:18:53.332Z,101728.81
2022-10-19T22:21:23.548Z,101728.91
2022-10-19T22:23:53.439Z,101731.69
2022-10-19T22:26:23.779Z,101732.00
2022-10-19T22:28:54.057Z,101723.13
2022-10-19T22:31:22.521Z,101715.84
2022-10-19T22:33:50.374Z,101715.63
2022-10-19T22:36:18.467Z,101713.50
2022-10-19T22:38:46.415Z,101703.22
2022-10-19T22:41:14.196Z,101700.94
2022-10-19T22:43:42.095Z,101704.63
2022-10-19T22:46:11.491Z,101698.06
2022-10-19T22:48:39.314Z,101686.41
2022-10-19T22:51:07.313Z,101681.28
2022-10-19T22:53:35.142Z,101675.09
2022-10-19T22:56:02.965Z,101676.50
2022-10-19T22:58:30.885Z,101671.16
2022-10-19T23:01:14.879Z,101666.28
2022-10-19T23:03:44.815Z,101662.75
2022-10-19T23:06:14.801Z,101652.13
2022-10-19T23:08:43.272Z,101652.13
2022-10-19T23:11:11.365Z,101655.97
2022-10-19T23:13:39.263Z,101644.00
2022-10-19T23:16:07.687Z,101647.81
2022-10-19T23:18:37.364Z,101647.28
2022-10-19T23:21:09.472Z,101639.44
2022-10-19T23:23:38.173Z,101632.19
2022-10-19T23:26:08.146Z,101624.84
2022-10-19T23:28:37.919Z,101622.41
2022-10-19T23:31:08.389Z,101624.91
2022-10-19T23:33:37.040Z,101612.44
2022-10-19T23:36:10.315Z,101610.03
2022-10-19T23:38:38.203Z,101608.38
2022-10-19T23:41:06.269Z,101607.59
2022-10-19T23:46:02.703Z,101601.16
2022-10-19T23:48:30.912Z,101597.09
2022-10-19T23:51:00.717Z,101597.94
2022-10-19T23:53:34.670Z,101596.59
2022-10-19T23:56:07.199Z,101597.19
2022-10-19T23:58:35.525Z,101589.34
